หน้าหลัก
METAR-TAF:

METAR-TAF

ท่าอากาศยาน :

Pecos, เทกซัส, สหรัฐอเมริกา

ละติจูด: 31-22-56N, ลองจิจูด: 103-30-38W, ความสูง: 796 ม.

การสังเกตสภาพอากาศปัจจุบัน

รายงานได้ทำขึ้นเมื่อ 15 นาทีที่แล้ว ณ เวลา 04:15 UTC
ลม 3 นอตจากตะวันออกเฉียงใต้
อุณหภูมิ 23°C
ความชื้น 6%
ความกดอากาศ 1009 hPa
ทัศนวิสัย: 16.1 กม.
ท้องฟ้าแจ่มใส

METAR: KPEQ 250415Z AUTO 14003KT 10SM CLR 23/M17 A2981 RMK AO2 T02301174

เวลา: 23:30 (04:30 UTC)

การพยากรณ์

รายงานได้ทำขึ้นเมื่อ 4 ชั่วโมงและ 49 นาทีที่แล้ว ณ เวลา 23:41 UTC
การพยากรณ์มีผลตั้งแต่วันที่ 25 ณ เวลา 00 UTC จนถึงวันที่ 25 ณ เวลา 24 UTC
ลม 8 นอตจากตะวันตก/ตะวันตกเฉียงเหนือ
ทัศนวิสัย: 10 กม.
ท้องฟ้าแจ่มใส
จาก 25 ณ เวลา 0200 UTC
ลม 5 นอตจากตะวันตกเฉียงใต้
ทัศนวิสัย: 10 กม.
ท้องฟ้าแจ่มใส
จาก 25 ณ เวลา 1600 UTC
ลม 11 นอตจากตะวันตก
ทัศนวิสัย: 10 กม.
ท้องฟ้าแจ่มใส
จาก 25 ณ เวลา 1900 UTC
ลม 18 นอตจากตะวันตกโดยมีลมกระโชกได้ถึง26 นอต
ทัศนวิสัย: 10 กม.
ท้องฟ้าแจ่มใส

TAF: KPEQ 242341Z 2500/2524 30008KT P6SM SKC FM250200 23005KT P6SM SKC FM251600 27011KT P6SM SKC FM251900 26018G26KT P6SM SKC

สังเกตการณ์สภาพอากาศและพยากรณ์อากาศของสนามบินมากกว่า 4000 แห่ง (รายงาน METAR และ TAF).

สถานีที่ดูได้จะแสดงไว้ด้วยจุดสีเหลืองและสีแดงบนแผนที่.

เลื่อนเมาส์ไปเหนือจุดเพื่อดูชื่อสถานี.

แล้วคลิกเพื่อดูสังเกตการณ์และการพยากรณ์สภาพอากาศ.

ในการเปลี่ยนแผนที่: คลิกที่ปุ่มสีเขียวที่มีกากบาทสีดำเพื่อซูมเข้า; ที่ปุ่มสีเขียวที่มีขีดเพื่อซูมออก; หรือที่ลูกศรสีเขียวเพื่อไปยังแผนที่ที่อยู่ติดกัน.


METAR-TAF: